Local area metar reports


Auburn metar:
KAUN 071315Z AUTO 08003KT 10SM CLR 14/06 A2993 RMK A01

Decoded:

station                        KAUN
observed_date Tue, 07 Jul 2020 13:15:00 +0000
observed_age 14 min. ago
wind_speed 3
wind_direction 80
wind_direction_label E
visibility_report 10 miles
present_weather_report Dry
clouds_report Clear skies
temperature_f 57
dew_point_f 43
humidity 59
barometer 29.93
remarks A01

Lincoln metar:
KLHM 071315Z AUTO 00000KT 10SM CLR 12/07 A2991 RMK AO1

Decoded:

station                        KLHM
observed_date Tue, 07 Jul 2020 13:15:00 +0000
observed_age 14 min. ago
wind_speed 0
wind_direction 0
wind_direction_label N
visibility_report 10 miles
present_weather_report Dry
clouds_report Clear skies
temperature_f 54
dew_point_f 45
humidity 72
barometer 29.91
remarks AO1